Terminal Aerodrome Forecast
Issued by NWS Omaha/Valley, NE

Home | Current Version | Previous Version | Graphics & Text | Print | Product List | Glossary On
Versions: 1 2 3 4 5 6 7 8 9 10 11 12 13 14 15 16 17 18 19 20 21 22 23 24 25 26 27 28 29 30 31 32 33 34 35 36 37 38 39 40
000
FTUS43 KOAX 221133
TAFOFK
TAF
KOFK 221133Z 2212/2312 18012KT 5SM -RA BR OVC008
     FM221500 26008KT 6SM BR BKN012 OVC090
     FM221700 32012KT P6SM BKN015 OVC025
      TEMPO 2219/2223 4SM -RASN OVC015
     FM230000 32013KT 4SM -SN BR OVC015=

USA.gov is the U.S. government's official web portal to all federal, state and local government web resources and services.